Time;durP1;ratioP1;P1;durP2;ratioP2;P2;SDS_P1;SDS_P2;PMS_P1;PMS_P2;Temp;Humidity;BMP_temperature;BMP_pressure;BME280_temperature;BME280_humidity;BME280_pressure;Samples;Min_cycle;Max_cycle;Signal;HPM_P1;HPM_P2
2024/01/15 00:02:01;;;;;;;22.80;4.28;;;;;;;;;;5016868;28;20045;-57
2024/01/15 00:04:27;;;;;;;13.20;2.75;;;;;;;;;;5034925;28;20033;-57
2024/01/15 00:06:53;;;;;;;9.63;3.05;;;;;;;;;;5012199;28;20045;-56
2024/01/15 00:09:19;;;;;;;14.10;2.78;;;;;;;;;;5032785;28;20126;-58
2024/01/15 00:11:46;;;;;;;15.50;3.58;;;;;;;;;;5013584;28;20049;-57
2024/01/15 00:14:14;;;;;;;17.52;3.90;;;3.60;99.90;;;;;;5034283;28;20045;-58
2024/01/15 00:16:41;;;;;;;14.52;3.03;;;;;;;;;;5035610;28;20037;-56
2024/01/15 00:19:07;;;;;;;11.77;3.05;;;;;;;;;;5031899;28;20049;-57
2024/01/15 00:21:33;;;;;;;16.00;3.42;;;;;;;;;;5030381;28;20038;-57
2024/01/15 00:23:59;;;;;;;15.57;3.08;;;;;;;;;;5034622;28;20064;-57
2024/01/15 00:26:25;;;;;;;14.45;2.65;;;;;;;;;;5032822;28;20042;-57
2024/01/15 00:28:51;;;;;;;17.08;3.33;;;;;;;;;;5031572;28;20104;-57
2024/01/15 00:31:17;;;;;;;14.40;4.05;;;;;;;;;;5031438;28;20045;-56
2024/01/15 00:33:43;;;;;;;12.68;3.03;;;;;;;;;;5034143;28;20045;-57
2024/01/15 00:36:09;;;;;;;6.85;2.13;;;;;;;;;;5028369;28;20096;-57
2024/01/15 00:38:36;;;;;;;6.40;1.38;;;;;;;;;;5031910;28;20033;-56
2024/01/15 00:41:02;;;;;;;8.77;1.80;;;;;;;;;;5029353;28;20037;-57
2024/01/15 00:43:28;;;;;;;7.25;1.40;;;;;;;;;;5034721;28;20038;-58
2024/01/15 00:45:54;;;;;;;8.40;1.60;;;;;;;;;;5032413;28;20048;-57
2024/01/15 00:48:20;;;;;;;6.07;1.33;;;;;;;;;;5033749;28;20045;-57
2024/01/15 00:50:46;;;;;;;10.35;2.00;;;;;;;;;;5029034;28;20408;-58
2024/01/15 00:53:12;;;;;;;5.78;1.73;;;;;;;;;;5029801;28;20045;-58
2024/01/15 00:55:38;;;;;;;8.82;2.58;;;2.50;99.90;;;;;;5029898;28;20386;-58
2024/01/15 00:58:04;;;;;;;9.48;1.90;;;;;;;;;;5030381;28;20057;-59
2024/01/15 01:00:30;;;;;;;12.88;2.72;;;;;;;;;;5031010;28;20040;-60
2024/01/15 01:02:56;;;;;;;9.23;1.80;;;;;;;;;;5030930;28;20045;-60
2024/01/15 01:05:22;;;;;;;9.95;2.22;;;;;;;;;;5030926;28;20121;-61
2024/01/15 01:07:48;;;;;;;6.43;1.70;;;2.50;99.90;;;;;;5025504;28;20157;-60
2024/01/15 01:10:14;;;;;;;14.93;2.30;;;;;;;;;;5029770;28;20079;-61
2024/01/15 01:12:40;;;;;;;10.00;1.85;;;;;;;;;;5028853;28;20048;-61
2024/01/15 01:15:06;;;;;;;6.63;1.80;;;;;;;;;;5028353;28;20037;-61
2024/01/15 01:17:32;;;;;;;11.20;2.00;;;;;;;;;;5028378;28;20037;-60
2024/01/15 01:19:58;;;;;;;13.40;2.55;;;;;;;;;;5034029;28;20069;-60
2024/01/15 01:22:24;;;;;;;17.38;4.07;;;;;;;;;;5029906;28;20092;-60
2024/01/15 01:24:50;;;;;;;14.65;2.97;;;;;;;;;;5030232;28;20095;-61
2024/01/15 01:27:16;;;;;;;13.88;2.97;;;;;;;;;;5028100;28;20038;-60
2024/01/15 01:29:42;;;;;;;16.27;3.83;;;;;;;;;;5027170;28;20076;-61
2024/01/15 01:32:08;;;;;;;14.90;3.45;;;;;;;;;;5029398;28;20032;-61
2024/01/15 01:34:41;;;;;;;18.42;3.72;;;;;;;;;;5010130;28;20037;-60
2024/01/15 01:37:07;;;;;;;18.25;3.58;;;;;;;;;;5027063;28;20048;-60
2024/01/15 01:39:33;;;;;;;17.65;3.25;;;;;;;;;;5030231;28;20413;-60
2024/01/15 01:41:59;;;;;;;13.50;2.90;;;;;;;;;;5023683;28;20116;-60
2024/01/15 01:44:25;;;;;;;18.00;3.40;;;;;;;;;;5028832;28;20187;-60
2024/01/15 01:46:51;;;;;;;20.05;3.85;;;;;;;;;;5028815;28;20132;-60
2024/01/15 01:49:18;;;;;;;15.50;3.42;;;;;;;;;;5029630;28;20124;-60
2024/01/15 01:51:44;;;;;;;18.52;3.80;;;;;;;;;;5030475;28;20042;-60
2024/01/15 01:54:12;;;;;;;16.75;4.40;;;3.00;99.90;;;;;;5028404;28;20117;-60
2024/01/15 01:56:38;;;;;;;18.95;4.00;;;;;;;;;;5028483;28;20075;-60
2024/01/15 01:59:04;;;;;;;20.35;3.40;;;;;;;;;;5030184;28;20362;-60
2024/01/15 02:01:31;;;;;;;16.13;4.60;;;;;;;;;;5029940;28;20400;-59
2024/01/15 02:03:58;;;;;;;10.23;2.60;;;;;;;;;;5031658;28;20124;-59
2024/01/15 02:06:24;;;;;;;16.40;4.43;;;3.00;99.90;;;;;;5029752;28;20091;-60
2024/01/15 02:08:50;;;;;;;15.43;3.50;;;3.10;99.90;;;;;;5029013;28;20100;-60
2024/01/15 02:11:16;;;;;;;19.23;3.95;;;;;;;;;;5028466;28;20548;-61
2024/01/15 02:13:42;;;;;;;14.73;3.50;;;;;;;;;;5029838;28;20128;-61
2024/01/15 02:16:08;;;;;;;18.27;3.63;;;;;;;;;;5027504;28;20084;-61
2024/01/15 02:18:43;;;;;;;17.15;4.47;;;3.00;99.90;;;;;;5028225;28;20111;-62
2024/01/15 02:21:10;;;;;;;10.35;2.78;;;2.30;99.90;;;;;;5028884;28;20168;-61
2024/01/15 02:23:37;;;;;;;11.65;2.72;;;;;;;;;;5029314;28;20033;-61
2024/01/15 02:26:03;;;;;;;12.18;2.35;;;;;;;;;;5029671;28;20137;-61
2024/01/15 02:28:29;;;;;;;15.00;3.22;;;;;;;;;;5028609;28;20042;-60
2024/01/15 02:30:55;;;;;;;12.63;3.20;;;;;;;;;;5029162;28;20048;-60
2024/01/15 02:33:21;;;;;;;9.93;2.40;;;;;;;;;;5029227;28;20129;-60
2024/01/15 02:35:49;;;;;;;9.25;2.42;;;;;;;;;;5029301;28;20661;-60
2024/01/15 02:38:16;;;;;;;12.52;3.20;;;;;;;;;;5029199;28;20045;-60
2024/01/15 02:40:43;;;;;;;12.68;2.75;;;;;;;;;;5028457;28;20037;-60
2024/01/15 02:43:09;;;;;;;10.27;2.63;;;;;;;;;;5028644;28;20566;-59
2024/01/15 02:45:35;;;;;;;10.63;2.38;;;;;;;;;;5031943;28;20041;-60
2024/01/15 02:48:01;;;;;;;8.82;2.67;;;;;;;;;;5029831;28;20045;-60
2024/01/15 02:50:27;;;;;;;7.30;1.67;;;2.90;99.90;;;;;;5024593;28;20119;-60
2024/01/15 02:52:53;;;;;;;11.40;2.22;;;;;;;;;;5032664;28;20493;-60
2024/01/15 02:55:19;;;;;;;7.97;1.60;;;;;;;;;;5025788;28;20121;-60
2024/01/15 02:57:45;;;;;;;11.18;2.80;;;;;;;;;;5025665;28;20095;-60
2024/01/15 03:00:11;;;;;;;7.75;2.08;;;;;;;;;;5028439;28;20043;-60
2024/01/15 03:02:39;;;;;;;15.50;2.35;;;;;;;;;;5026086;28;20065;-62
2024/01/15 03:05:06;;;;;;;17.02;3.80;;;;;;;;;;5029321;28;20049;-61
2024/01/15 03:07:32;;;;;;;13.13;3.97;;;;;;;;;;5028430;28;20083;-61
2024/01/15 03:09:58;;;;;;;14.13;2.78;;;;;;;;;;5028102;28;20077;-61
2024/01/15 03:12:24;;;;;;;16.33;2.88;;;;;;;;;;5028771;28;20037;-61
2024/01/15 03:14:50;;;;;;;16.98;3.50;;;;;;;;;;5027966;28;20456;-61
2024/01/15 03:17:16;;;;;;;14.77;3.30;;;;;;;;;;5026653;28;20056;-61
2024/01/15 03:19:42;;;;;;;15.02;3.08;;;;;;;;;;5029087;28;20049;-61
2024/01/15 03:22:10;;;;;;;17.85;3.30;;;2.80;99.90;;;;;;5028831;28;20096;-60
2024/01/15 03:24:36;;;;;;;17.73;4.45;;;3.00;99.90;;;;;;5027868;28;20417;-61
2024/01/15 03:27:02;;;;;;;22.33;4.00;;;3.30;99.90;;;;;;5027589;28;20044;-61
2024/01/15 03:29:28;;;;;;;18.63;3.63;;;;;;;;;;5027951;28;20038;-61
2024/01/15 03:31:54;;;;;;;13.35;3.38;;;;;;;;;;5029014;28;20039;-60
2024/01/15 03:34:20;;;;;;;13.65;3.65;;;;;;;;;;5028878;28;20604;-60
2024/01/15 03:36:46;;;;;;;12.20;2.63;;;;;;;;;;5030976;28;20080;-59
2024/01/15 03:39:12;;;;;;;11.40;2.30;;;;;;;;;;5027843;28;20111;-60
2024/01/15 03:41:38;;;;;;;14.68;2.13;;;3.00;99.90;;;;;;5027775;28;20073;-59
2024/01/15 03:44:03;;;;;;;11.77;2.28;;;2.90;99.90;;;;;;5028817;28;20029;-59
2024/01/15 03:46:29;;;;;;;13.10;2.75;;;;;;;;;;5028214;28;20049;-60
2024/01/15 03:48:55;;;;;;;10.50;1.92;;;;;;;;;;5028395;28;20041;-60
2024/01/15 03:51:21;;;;;;;9.18;1.58;;;2.80;99.90;;;;;;5027790;28;20041;-59
2024/01/15 03:53:47;;;;;;;6.30;1.55;;;;;;;;;;5010783;28;20068;-59
2024/01/15 03:56:13;;;;;;;4.65;1.08;;;;;;;;;;5028693;28;20076;-59
2024/01/15 03:58:39;;;;;;;7.13;1.10;;;2.70;99.90;;;;;;5027830;28;20393;-60
2024/01/15 04:01:09;;;;;;;5.95;1.20;;;2.50;99.90;;;;;;5010501;28;20086;-59
2024/01/15 04:03:35;;;;;;;5.70;1.50;;;;;;;;;;5028232;28;20033;-60
2024/01/15 04:06:01;;;;;;;8.50;1.70;;;;;;;;;;5027886;28;20056;-59
2024/01/15 04:08:27;;;;;;;7.30;1.60;;;;;;;;;;5027795;28;20237;-59
2024/01/15 04:10:53;;;;;;;11.93;2.25;;;;;;;;;;5027694;28;20040;-59
2024/01/15 04:13:19;;;;;;;9.38;1.95;;;;;;;;;;5028210;28;20049;-59
2024/01/15 04:15:45;;;;;;;9.77;1.95;;;;;;;;;;5027973;28;20503;-60
2024/01/15 04:18:11;;;;;;;9.27;1.70;;;2.40;99.90;;;;;;5028461;28;20033;-59
2024/01/15 04:20:36;;;;;;;11.90;2.30;;;2.30;99.90;;;;;;5027410;28;20042;-58
2024/01/15 04:23:02;;;;;;;9.88;1.60;;;;;;;;;;5028058;28;20037;-59
2024/01/15 04:25:28;;;;;;;11.25;2.15;;;;;;;;;;5028133;28;20111;-60
2024/01/15 04:27:54;;;;;;;8.30;1.60;;;;;;;;;;5030303;28;20041;-59
2024/01/15 04:30:20;;;;;;;12.30;1.70;;;;;;;;;;5030619;28;20092;-59
2024/01/15 04:32:46;;;;;;;9.57;2.22;;;;;;;;;;5031786;28;20052;-59
2024/01/15 04:35:12;;;;;;;8.75;2.20;;;;;;;;;;5031614;28;20049;-59
2024/01/15 04:37:39;;;;;;;9.88;2.17;;;2.40;99.90;;;;;;5031101;28;20033;-59
2024/01/15 04:40:05;;;;;;;9.90;1.80;;;;;;;;;;5031302;28;20049;-60
2024/01/15 04:42:34;;;;;;;12.23;3.67;;;2.50;99.90;;;;;;5025721;28;20160;-59
2024/01/15 04:45:00;;;;;;;12.25;2.75;;;;;;;;;;5031453;28;20073;-59
2024/01/15 04:47:26;;;;;;;10.45;2.35;;;;;;;;;;5030355;28;20034;-58
2024/01/15 04:49:51;;;;;;;15.23;2.35;;;2.50;99.90;;;;;;5030862;28;20580;-58
2024/01/15 04:52:17;;;;;;;12.57;2.92;;;2.50;99.90;;;;;;5028646;28;20034;-58
2024/01/15 04:54:43;;;;;;;12.70;3.47;;;;;;;;;;5018685;28;20063;-58
2024/01/15 04:57:09;;;;;;;9.98;2.60;;;;;;;;;;5028617;28;20038;-56
2024/01/15 04:59:35;;;;;;;11.32;3.72;;;;;;;;;;5029967;28;20078;-58
2024/01/15 05:02:01;;;;;;;13.38;3.35;;;;;;;;;;5031310;28;20040;-58
2024/01/15 05:04:27;;;;;;;12.80;2.47;;;2.00;99.90;;;;;;5029092;28;20068;-58
2024/01/15 05:06:53;;;;;;;11.93;2.67;;;;;;;;;;5031604;28;20506;-57
2024/01/15 05:09:19;;;;;;;10.32;2.88;;;;;;;;;;5030609;28;21373;-59
2024/01/15 05:11:45;;;;;;;9.70;2.38;;;;;;;;;;5028513;28;20037;-57
2024/01/15 05:14:11;;;;;;;13.57;2.75;;;1.90;99.90;;;;;;5033001;28;20124;-56
2024/01/15 05:16:40;;;;;;;9.55;2.60;;;;;;;;;;5023071;28;20038;-58
2024/01/15 05:19:07;;;;;;;17.35;2.55;;;1.30;99.90;;;;;;5035944;28;20047;-58
2024/01/15 05:21:33;;;;;;;17.17;4.20;;;;;;;;;;5029301;28;20029;-58
2024/01/15 05:23:59;;;;;;;9.60;3.08;;;;;;;;;;5029723;28;20165;-58
2024/01/15 05:26:25;;;;;;;11.50;3.05;;;;;;;;;;5024913;28;20045;-57
2024/01/15 05:28:51;;;;;;;15.80;3.10;;;;;;;;;;5022764;28;20060;-57
2024/01/15 05:31:17;;;;;;;16.88;4.00;;;;;;;;;;5028733;28;20041;-58
2024/01/15 05:33:43;;;;;;;12.25;3.60;;;2.00;99.90;;;;;;5030647;28;20041;-55
2024/01/15 05:36:09;;;;;;;16.92;3.00;;;;;;;;;;5027019;28;20129;-58
2024/01/15 05:38:34;;;;;;;24.23;4.63;;;2.10;99.90;;;;;;5027055;28;20517;-58
2024/01/15 05:41:00;;;;;;;16.40;3.20;;;;;;;;;;5027110;28;20040;-57
2024/01/15 05:43:26;;;;;;;18.77;3.20;;;;;;;;;;5029777;28;20053;-58
2024/01/15 05:45:52;;;;;;;22.17;5.95;;;;;;;;;;5028072;28;20043;-59
2024/01/15 05:48:18;;;;;;;15.30;3.22;;;2.30;99.90;;;;;;5019481;28;20120;-57
2024/01/15 05:50:44;;;;;;;14.55;2.42;;;2.50;99.90;;;;;;5019922;28;20412;-56
2024/01/15 05:53:09;;;;;;;14.60;2.42;;;2.40;99.90;;;;;;5027797;28;20042;-58
2024/01/15 05:55:38;;;;;;;12.73;2.60;;;;;;;;;;5023011;28;20045;-58
2024/01/15 05:58:04;;;;;;;12.57;2.67;;;;;;;;;;5025636;28;20052;-58
2024/01/15 06:00:30;;;;;;;12.00;3.05;;;;;;;;;;5014607;28;20088;-58
2024/01/15 06:02:56;;;;;;;13.75;2.97;;;;;;;;;;5023499;28;20061;-57
2024/01/15 06:05:22;;;;;;;16.83;3.92;;;;;;;;;;5028294;28;20076;-55
2024/01/15 06:07:48;;;;;;;18.27;3.13;;;;;;;;;;5023828;28;20095;-58
2024/01/15 06:10:14;;;;;;;18.25;3.85;;;;;;;;;;5026654;28;20042;-58
2024/01/15 06:12:40;;;;;;;15.93;3.92;;;;;;;;;;5007332;28;20045;-59
2024/01/15 06:15:06;;;;;;;10.98;2.28;;;;;;;;;;5010743;28;20064;-59
2024/01/15 06:17:32;;;;;;;16.45;2.42;;;;;;;;;;5020277;28;21779;-58
2024/01/15 06:19:58;;;;;;;17.77;3.13;;;;;;;;;;5023296;28;20029;-59
2024/01/15 06:22:24;;;;;;;9.70;2.33;;;;;;;;;;5025979;28;20033;-56
2024/01/15 06:24:50;;;;;;;12.00;2.00;;;;;;;;;;5029226;28;20055;-57
2024/01/15 06:27:16;;;;;;;17.10;5.20;;;;;;;;;;5034790;28;20048;-59
2024/01/15 06:29:45;;;;;;;8.27;1.98;;;;;;;;;;5028263;28;20420;-59
2024/01/15 06:32:11;;;;;;;9.73;1.83;;;2.10;99.90;;;;;;5011289;28;20057;-57
2024/01/15 06:34:37;;;;;;;10.93;1.98;;;;;;;;;;5028929;28;20044;-58
2024/01/15 06:37:03;;;;;;;7.03;2.17;;;1.90;99.90;;;;;;5029410;28;20132;-58
2024/01/15 06:39:29;;;;;;;9.20;2.38;;;;;;;;;;5029449;28;20413;-57
2024/01/15 06:41:55;;;;;;;10.60;2.20;;;;;;;;;;5028364;28;20048;-57
2024/01/15 06:44:21;;;;;;;11.07;2.13;;;;;;;;;;5029367;28;20041;-56
2024/01/15 06:46:48;;;;;;;13.65;3.25;;;;;;;;;;5028609;28;20045;-57
2024/01/15 06:49:14;;;;;;;11.30;2.15;;;;;;;;;;5028636;28;20040;-57
2024/01/15 06:51:40;;;;;;;11.45;3.35;;;;;;;;;;5028990;28;20460;-57
2024/01/15 06:54:06;;;;;;;6.78;2.10;;;;;;;;;;5028936;28;20053;-56
2024/01/15 06:56:32;;;;;;;12.68;2.80;;;;;;;;;;5028804;28;20042;-56
2024/01/15 06:58:58;;;;;;;9.25;3.13;;;;;;;;;;5028564;28;20029;-58
2024/01/15 07:01:24;;;;;;;13.57;3.30;;;2.10;99.90;;;;;;5029089;28;20037;-57
2024/01/15 07:03:50;;;;;;;9.45;2.13;;;;;;;;;;5024553;28;20041;-57
2024/01/15 07:06:16;;;;;;;13.35;3.33;;;2.10;99.90;;;;;;5029192;28;20044;-57
2024/01/15 07:08:42;;;;;;;15.98;2.95;;;1.60;99.90;;;;;;5025260;28;20068;-55
2024/01/15 07:11:08;;;;;;;17.13;2.67;;;;;;;;;;5025154;28;20122;-57
2024/01/15 07:13:34;;;;;;;9.20;2.67;;;;;;;;;;5024834;28;20033;-55
2024/01/15 07:16:00;;;;;;;11.23;2.70;;;;;;;;;;5028263;28;20068;-59
2024/01/15 07:18:26;;;;;;;14.88;2.30;;;;;;;;;;5011278;28;20037;-60
2024/01/15 07:20:52;;;;;;;10.38;2.20;;;;;;;;;;5027584;28;20037;-58
2024/01/15 07:23:18;;;;;;;8.60;2.75;;;;;;;;;;5028965;28;20408;-58
2024/01/15 07:25:44;;;;;;;8.73;1.90;;;;;;;;;;5028433;28;20037;-58
2024/01/15 07:28:10;;;;;;;10.80;2.08;;;;;;;;;;5027632;28;20469;-58
2024/01/15 07:30:38;;;;;;;5.45;1.70;;;;;;;;;;5028222;28;20057;-58
2024/01/15 07:33:05;;;;;;;7.88;1.75;;;;;;;;;;5010913;28;20100;-58
2024/01/15 07:35:30;;;;;;;10.98;2.22;;;2.00;99.90;;;;;;5028612;28;20049;-57
2024/01/15 07:37:56;;;;;;;6.90;1.88;;;2.00;99.90;;;;;;5028074;28;20571;-57
2024/01/15 07:40:22;;;;;;;10.57;2.72;;;;;;;;;;5028182;28;20116;-58
2024/01/15 07:42:48;;;;;;;11.05;1.95;;;;;;;;;;5023933;28;20037;-58
2024/01/15 07:45:14;;;;;;;14.40;2.58;;;;;;;;;;5026396;28;20052;-57
2024/01/15 07:47:40;;;;;;;3.50;1.08;;;;;;;;;;5024170;28;20042;-58
2024/01/15 07:50:06;;;;;;;5.88;1.90;;;;;;;;;;5026074;28;20045;-58
2024/01/15 07:52:32;;;;;;;9.75;1.58;;;;;;;;;;5028405;28;20546;-58
2024/01/15 07:55:03;;;;;;;5.90;1.25;;;;;;;;;;5028076;28;20046;-58
2024/01/15 07:57:29;;;;;;;5.95;1.58;;;;;;;;;;5027844;28;20441;-56
2024/01/15 07:59:55;;;;;;;4.50;1.13;;;;;;;;;;5028410;28;20117;-57
2024/01/15 08:02:21;;;;;;;4.90;1.17;;;;;;;;;;5032614;28;20107;-58
2024/01/15 08:04:47;;;;;;;4.45;1.30;;;;;;;;;;5031650;28;20044;-56
2024/01/15 08:07:14;;;;;;;5.32;1.20;;;;;;;;;;5032510;28;20060;-58
2024/01/15 08:09:40;;;;;;;4.88;1.70;;;;;;;;;;5030147;28;20158;-59
2024/01/15 08:12:06;;;;;;;8.45;2.28;;;;;;;;;;5031389;28;20045;-59
2024/01/15 08:14:32;;;;;;;6.05;1.45;;;1.70;99.90;;;;;;5016017;28;20037;-57
2024/01/15 08:16:57;;;;;;;7.40;1.88;;;1.90;99.90;;;;;;5031678;28;20041;-56
2024/01/15 08:19:23;;;;;;;8.05;1.75;;;;;;;;;;5030953;28;20038;-58
2024/01/15 08:21:49;;;;;;;6.15;1.85;;;;;;;;;;5030938;28;20045;-56
2024/01/15 08:24:16;;;;;;;12.10;2.25;;;2.30;99.90;;;;;;5031854;28;20112;-58
2024/01/15 08:26:42;;;;;;;7.78;2.10;;;;;;;;;;5031194;28;20095;-59
2024/01/15 08:29:09;;;;;;;9.65;1.90;;;;;;;;;;5028358;28;20041;-57
2024/01/15 08:31:35;;;;;;;15.85;2.50;;;;;;;;;;5031397;28;20037;-57
2024/01/15 08:34:01;;;;;;;12.18;2.60;;;;;;;;;;5031900;28;20120;-58
2024/01/15 08:36:29;;;;;;;9.77;2.40;;;;;;;;;;5031736;28;20041;-57
2024/01/15 08:38:55;;;;;;;12.50;3.00;;;;;;;;;;5030336;28;20057;-58
2024/01/15 08:41:21;;;;;;;12.55;2.92;;;2.10;99.90;;;;;;5030839;28;20052;-58
2024/01/15 08:43:47;;;;;;;13.63;3.20;;;;;;;;;;5031032;28;20035;-57
2024/01/15 08:46:13;;;;;;;10.73;2.50;;;;;;;;;;5031282;28;20044;-59
2024/01/15 08:48:39;;;;;;;9.70;2.03;;;;;;;;;;5031332;28;20033;-58
2024/01/15 08:51:06;;;;;;;9.45;1.77;;;;;;;;;;5031784;28;20052;-58
2024/01/15 08:53:32;;;;;;;11.15;1.90;;;;;;;;;;5031521;28;20041;-59
2024/01/15 08:55:58;;;;;;;9.75;1.95;;;2.80;99.90;;;;;;5030677;28;20177;-57
2024/01/15 08:58:25;;;;;;;5.50;1.83;;;;;;;;;;5033607;28;20033;-57
2024/01/15 09:00:51;;;;;;;11.75;2.00;;;2.80;99.90;;;;;;5029647;28;20029;-58
2024/01/15 09:03:17;;;;;;;9.82;3.17;;;2.90;99.90;;;;;;5031670;28;20049;-57
2024/01/15 09:05:43;;;;;;;10.02;2.53;;;;;;;;;;5031730;28;20037;-57
2024/01/15 09:08:09;;;;;;;7.72;1.67;;;;;;;;;;5007430;28;20259;-57
2024/01/15 09:10:35;;;;;;;9.45;2.03;;;;;;;;;;5010324;28;20120;-57
2024/01/15 09:13:01;;;;;;;11.70;2.22;;;;;;;;;;5006605;28;20060;-62
2024/01/15 09:15:27;;;;;;;8.63;3.60;;;;;;;;;;5028044;28;20412;-59
2024/01/15 09:17:53;;;;;;;8.40;2.05;;;;;;;;;;5030259;28;20045;-58
2024/01/15 09:20:19;;;;;;;10.68;2.95;;;2.50;99.90;;;;;;5030966;28;20037;-58
2024/01/15 09:22:45;;;;;;;11.32;2.10;;;;;;;;;;5030634;28;20436;-58
2024/01/15 09:25:11;;;;;;;7.13;1.60;;;2.50;99.90;;;;;;5025822;28;20475;-58
2024/01/15 09:27:37;;;;;;;10.20;2.20;;;;;;;;;;5030524;28;20117;-58
2024/01/15 09:30:04;;;;;;;10.88;1.70;;;2.80;99.90;;;;;;5029855;28;20041;-59
2024/01/15 09:32:30;;;;;;;10.13;1.80;;;2.60;99.90;;;;;;5029228;28;20091;-59
2024/01/15 09:34:56;;;;;;;7.38;1.85;;;2.80;99.90;;;;;;5030212;28;20045;-59
2024/01/15 09:37:23;;;;;;;10.55;2.40;;;;;;;;;;5030375;28;20030;-58
2024/01/15 09:39:49;;;;;;;6.95;1.80;;;;;;;;;;5013675;28;20041;-58
2024/01/15 09:42:16;;;;;;;9.15;2.28;;;3.50;99.90;;;;;;5030748;28;20037;-59
2024/01/15 09:44:42;;;;;;;4.68;1.23;;;;;;;;;;5030533;28;20041;-59
2024/01/15 09:47:08;;;;;;;4.57;1.63;;;;;;;;;;5029987;28;20620;-60
2024/01/15 09:49:34;;;;;;;4.78;1.20;;;;;;;;;;5030591;28;20367;-59
2024/01/15 09:52:01;;;;;;;6.40;1.50;;;3.40;99.90;;;;;;5030118;28;20143;-59
2024/01/15 09:54:27;;;;;;;13.30;1.63;;;;;;;;;;5030678;28;20401;-59
2024/01/15 09:56:55;;;;;;;7.75;1.50;;;;;;;;;;5031198;28;20531;-61
2024/01/15 09:59:24;;;;;;;8.52;1.88;;;3.40;99.90;;;;;;5029819;28;20072;-60
2024/01/15 10:01:50;;;;;;;9.45;1.90;;;;;;;;;;5029885;28;20041;-60
2024/01/15 10:04:16;;;;;;;6.75;1.25;;;3.30;99.90;;;;;;5029865;28;20041;-61
2024/01/15 10:06:47;;;;;;;8.65;1.73;;;;;;;;;;5029991;28;20044;-60
2024/01/15 10:09:17;;;;;;;5.88;1.25;;;;;;;;;;5027774;28;20136;-59
2024/01/15 10:11:44;;;;;;;15.55;2.28;;;;;;;;;;5029839;28;20063;-59
2024/01/15 10:14:12;;;;;;;8.75;1.30;;;;;;;;;;5007733;28;20136;-60
2024/01/15 10:16:39;;;;;;;8.90;1.50;;;;;;;;;;5029910;28;20046;-60
2024/01/15 10:19:05;;;;;;;6.05;1.70;;;;;;;;;;5029102;28;20041;-59
2024/01/15 10:21:35;;;;;;;7.22;1.42;;;;;;;;;;5029427;28;20037;-59
2024/01/15 10:24:05;;;;;;;11.02;2.65;;;;;;;;;;5030437;28;20103;-59
2024/01/15 10:26:32;;;;;;;8.73;3.10;;;;;;;;;;5029673;28;20125;-59
2024/01/15 10:29:00;;;;;;;10.60;2.58;;;;;;;;;;5029239;28;20417;-60
2024/01/15 10:31:27;;;;;;;11.38;1.63;;;;;;;;;;5029295;28;20041;-60
2024/01/15 10:33:53;;;;;;;15.00;2.67;;;;;;;;;;5029177;28;20434;-59
2024/01/15 10:36:19;;;;;;;8.85;2.28;;;;;;;;;;5029534;28;20223;-60
2024/01/15 10:38:46;;;;;;;9.57;2.63;;;;;;;;;;5028004;28;20038;-59
2024/01/15 10:41:12;;;;;;;5.97;1.67;;;;;;;;;;5028376;28;20397;-59
2024/01/15 10:43:41;;;;;;;12.75;2.30;;;;;;;;;;5029231;28;20033;-59
2024/01/15 10:46:07;;;;;;;8.05;2.22;;;;;;;;;;5028577;28;20105;-58
2024/01/15 10:48:35;;;;;;;11.27;2.25;;;;;;;;;;5029256;28;20392;-59
2024/01/15 10:51:10;;;;;;;10.93;2.00;;;;;;;;;;5006670;28;20140;-59
2024/01/15 10:53:36;;;;;;;;;;;;;;;;;;5031720;28;20068;-59
2024/01/15 10:56:03;;;;;;;11.00;2.65;;;;;;;;;;5028620;28;20431;-58
2024/01/15 10:58:31;;;;;;;11.93;2.58;;;3.70;99.90;;;;;;5029332;28;20156;-56
2024/01/15 11:00:57;;;;;;;11.02;2.60;;;3.40;99.90;;;;;;5021258;28;20044;-59
2024/01/15 11:03:23;;;;;;;11.15;1.75;;;;;;;;;;5029346;28;20029;-58
2024/01/15 11:05:50;;;;;;;13.93;3.05;;;;;;;;;;5030721;28;20059;-58
2024/01/15 11:08:18;;;;;;;9.00;1.40;;;3.30;99.90;;;;;;5026916;28;20041;-58
2024/01/15 11:10:46;;;;;;;12.10;2.63;;;;;;;;;;5027952;28;20579;-57
2024/01/15 11:13:15;;;;;;;6.70;1.48;;;;;;;;;;5024816;28;20037;-58
2024/01/15 11:16:04;;;;;;;6.85;1.83;;;4.00;99.90;;;;;;5028810;28;20107;-58
2024/01/15 11:18:36;;;;;;;10.45;1.50;;;;;;;;;;5028561;28;20038;-60
2024/01/15 11:21:08;;;;;;;10.98;2.38;;;;;;;;;;5027106;28;20045;-59
2024/01/15 11:23:46;;;;;;;7.93;1.67;;;3.00;99.90;;;;;;5028601;28;20107;-59
2024/01/15 11:26:30;;;;;;;5.40;1.33;;;;;;;;;;5026735;28;20060;-58
2024/01/15 11:28:56;;;;;;;5.97;1.50;;;;;;;;;;5027076;28;20037;-58
2024/01/15 11:31:48;;;;;;;9.60;1.60;;;;;;;;;;5028080;28;20041;-58
2024/01/15 11:34:14;;;;;;;9.50;2.30;;;;;;;;;;5000751;28;20057;-59
2024/01/15 11:36:44;;;;;;;6.47;1.55;;;;;;;;;;5028023;28;20034;-56
2024/01/15 11:39:28;;;;;;;5.60;1.50;;;;;;;;;;5028069;28;20389;-59
2024/01/15 11:41:55;;;;;;;7.35;1.85;;;2.40;99.90;;;;;;5028359;28;20124;-57
2024/01/15 11:44:21;;;;;;;7.50;1.55;;;;;;;;;;5028405;28;20045;-59
2024/01/15 11:47:02;;;;;;;8.95;2.00;;;2.40;99.90;;;;;;5028558;28;20080;-60
2024/01/15 11:49:47;;;;;;;10.45;2.03;;;;;;;;;;5026318;28;20034;-57
2024/01/15 11:52:16;;;;;;;8.40;1.45;;;;;;;;;;5024958;28;20045;-58
2024/01/15 11:54:48;;;;;;;8.32;1.70;;;;;;;;;;5028728;28;20496;-58
2024/01/15 11:57:19;;;;;;;9.70;1.60;;;;;;;;;;5027078;28;20096;-55
2024/01/15 11:59:45;;;;;;;10.23;2.45;;;;;;;;;;5028554;28;20044;-57
2024/01/15 12:02:12;;;;;;;10.02;2.85;;;;;;;;;;5026580;28;20041;-56
2024/01/15 12:04:39;;;;;;;9.20;1.80;;;;;;;;;;5027124;28;20467;-57
2024/01/15 12:07:05;;;;;;;9.57;2.22;;;;;;;;;;5028177;28;20096;-57
2024/01/15 12:09:31;;;;;;;8.57;2.63;;;3.20;99.90;;;;;;5027532;28;20092;-56
2024/01/15 12:12:11;;;;;;;8.55;2.13;;;3.70;99.90;;;;;;5028062;28;20041;-56
2024/01/15 12:14:38;;;;;;;8.70;1.80;;;3.10;99.90;;;;;;5008994;28;20077;-56
2024/01/15 12:17:04;;;;;;;9.63;1.88;;;;;;;;;;5028013;28;20038;-59
2024/01/15 12:19:30;;;;;;;8.77;2.65;;;5.40;99.90;;;;;;5026187;28;20057;-58
2024/01/15 12:21:56;;;;;;;6.65;1.70;;;6.60;99.90;;;;;;5027569;28;20356;-59
2024/01/15 12:24:22;;;;;;;10.02;1.80;;;7.70;99.90;;;;;;5027536;28;20080;-59
2024/01/15 12:26:47;;;;;;;5.20;1.52;;;9.10;99.90;;;;;;5027910;28;20171;-58
2024/01/15 12:29:13;;;;;;;10.05;1.55;;;;;;;;;;5026676;28;20037;-58
2024/01/15 12:31:39;;;;;;;6.60;1.52;;;;;;;;;;5027821;28;20037;-59
2024/01/15 12:34:06;;;;;;;14.57;2.13;;;;;;;;;;5029690;28;20056;-60
2024/01/15 12:36:32;;;;;;;9.60;1.77;;;;;;;;;;5026774;28;20095;-58
2024/01/15 12:39:00;;;;;;;11.05;2.17;;;8.30;99.90;;;;;;5028409;28;20471;-59
2024/01/15 12:41:26;;;;;;;9.65;1.73;;;;;;;;;;5027099;28;20042;-59
2024/01/15 12:43:53;;;;;;;13.95;3.20;;;;;;;;;;5028199;28;20065;-58
2024/01/15 12:46:19;;;;;;;7.03;1.83;;;;;;;;;;5028074;28;20095;-60
2024/01/15 12:48:45;;;;;;;10.85;1.98;;;;;;;;;;5031931;28;20077;-60
2024/01/15 12:51:11;;;;;;;9.30;2.33;;;;;;;;;;5030502;28;20037;-59
2024/01/15 12:53:37;;;;;;;10.20;2.13;;;5.40;99.90;;;;;;5032118;28;20047;-58
2024/01/15 12:56:03;;;;;;;9.68;2.45;;;;;;;;;;5013849;28;20505;-58
2024/01/15 12:58:29;;;;;;;9.57;2.60;;;;;;;;;;5031057;28;20037;-58
2024/01/15 13:00:55;;;;;;;16.10;2.97;;;;;;;;;;5028926;28;20115;-58
2024/01/15 13:03:22;;;;;;;13.48;2.78;;;;;;;;;;5031463;28;20492;-59
2024/01/15 13:05:49;;;;;;;13.07;3.15;;;;;;;;;;5031132;28;20085;-57
2024/01/15 13:08:15;;;;;;;12.48;2.83;;;;;;;;;;5030681;28;20488;-58
2024/01/15 13:10:42;;;;;;;11.52;3.55;;;7.30;99.90;;;;;;5031137;28;20056;-58
2024/01/15 13:13:07;;;;;;;11.43;3.00;;;8.40;99.90;;;;;;5030954;28;20121;-57
2024/01/15 13:15:33;;;;;;;9.63;2.95;;;;;;;;;;5031089;28;20129;-59
2024/01/15 13:18:00;;;;;;;11.00;2.70;;;;;;;;;;5032033;28;20056;-59
2024/01/15 13:20:26;;;;;;;10.38;2.70;;;;;;;;;;5030176;28;20037;-60
2024/01/15 13:22:52;;;;;;;12.45;2.78;;;;;;;;;;5031217;28;20236;-59
2024/01/15 13:25:18;;;;;;;10.93;2.60;;;;;;;;;;5030401;28;20501;-59
2024/01/15 13:27:43;;;;;;;11.32;2.60;;;6.90;99.90;;;;;;5030857;28;20119;-59
2024/01/15 13:30:12;;;;;;;19.20;3.55;;;;;;;;;;5030387;28;20033;-59
2024/01/15 13:32:37;;;;;;;7.72;2.25;;;5.60;99.90;;;;;;5028413;28;20049;-59
2024/01/15 13:35:06;;;;;;;13.20;3.30;;;;;;;;;;5030698;28;20413;-59
2024/01/15 13:37:32;;;;;;;11.98;2.75;;;;;;;;;;5031431;28;20126;-58
2024/01/15 13:39:58;;;;;;;7.20;2.10;;;4.50;99.90;;;;;;5027726;28;20037;-59
2024/01/15 13:42:27;;;;;;;9.00;1.80;;;;;;;;;;5032495;28;20529;-58
2024/01/15 13:44:53;;;;;;;9.68;2.72;;;;;;;;;;5030115;28;20048;-57
2024/01/15 13:47:19;;;;;;;10.18;1.98;;;;;;;;;;5029922;28;20045;-56
2024/01/15 13:49:44;;;;;;;8.73;1.90;;;3.70;99.90;;;;;;5031542;28;20041;-58
2024/01/15 13:52:10;;;;;;;16.48;2.65;;;;;;;;;;5030687;28;20520;-57
2024/01/15 13:54:36;;;;;;;9.55;2.00;;;4.00;99.90;;;;;;5030172;28;20041;-55
2024/01/15 13:57:02;;;;;;;8.65;1.65;;;;;;;;;;5029445;28;20037;-56
2024/01/15 13:59:28;;;;;;;8.05;1.85;;;4.90;99.90;;;;;;5029236;28;20041;-57
2024/01/15 14:01:54;;;;;;;11.18;1.95;;;;;;;;;;5030085;28;20041;-58
2024/01/15 14:04:19;;;;;;;11.38;3.10;;;5.30;99.90;;;;;;5029293;28;20148;-58
2024/01/15 14:06:46;;;;;;;11.27;2.55;;;;;;;;;;5030591;28;20037;-58